createdAt,value
2018-04-13T00:02:07.512Z,37.40
2018-04-13T00:04:35.131Z,39.37
2018-04-13T00:07:02.699Z,44.53
2018-04-13T00:09:30.305Z,42.33
2018-04-13T00:11:57.921Z,40.97
2018-04-13T00:14:25.503Z,38.50
2018-04-13T00:16:53.101Z,39.57
2018-04-13T00:19:20.674Z,38.77
2018-04-13T00:21:48.286Z,38.93
2018-04-13T00:24:16.631Z,41.20
2018-04-13T00:26:44.233Z,41.73
2018-04-13T00:29:12.614Z,35.40
2018-04-13T00:31:41.002Z,41.33
2018-04-13T00:34:08.577Z,41.10
2018-04-13T00:36:36.184Z,38.27
2018-04-13T00:39:03.763Z,37.90
2018-04-13T00:41:31.383Z,38.83
2018-04-13T00:43:58.960Z,38.73
2018-04-13T00:46:26.579Z,36.57
2018-04-13T00:48:54.170Z,37.30
2018-04-13T00:51:21.828Z,41.47
2018-04-13T00:53:49.439Z,40.17
2018-04-13T00:56:17.072Z,39.33
2018-04-13T00:58:44.723Z,42.93
2018-04-13T01:01:12.335Z,42.23
2018-04-13T01:03:39.957Z,39.37
2018-04-13T01:06:07.554Z,38.33
2018-04-13T01:08:35.939Z,38.20
2018-04-13T01:11:03.518Z,40.73
2018-04-13T01:13:31.128Z,41.00
2018-04-13T01:15:58.727Z,41.37
2018-04-13T01:18:26.338Z,40.27
2018-04-13T01:20:53.909Z,42.43
2018-04-13T01:23:21.512Z,41.27
2018-04-13T01:25:49.124Z,50.33
2018-04-13T01:28:16.772Z,45.57
2018-04-13T01:30:44.384Z,48.43
2018-04-13T01:33:11.968Z,43.27
2018-04-13T01:35:39.578Z,41.43
2018-04-13T01:38:07.144Z,36.90
2018-04-13T01:40:34.833Z,32.53
2018-04-13T01:43:02.403Z,34.03
2018-04-13T01:45:30.121Z,30.67
2018-04-13T01:47:57.701Z,31.97
2018-04-13T01:50:26.077Z,23.07
2018-04-13T01:52:53.684Z,23.53
2018-04-13T01:55:21.263Z,27.23
2018-04-13T01:57:48.879Z,25.10
2018-04-13T02:00:17.276Z,25.07
2018-04-13T02:02:44.855Z,26.83
2018-04-13T02:05:12.465Z,24.00
2018-04-13T02:07:40.818Z,26.60
2018-04-13T02:10:08.428Z,24.93
2018-04-13T02:12:36.012Z,25.23
2018-04-13T02:15:05.681Z,26.93
2018-04-13T02:17:34.585Z,29.83
2018-04-13T02:20:02.929Z,27.03
2018-04-13T02:22:30.552Z,26.07
2018-04-13T02:24:59.614Z,27.17
2018-04-13T02:27:27.190Z,26.60
2018-04-13T02:29:54.773Z,23.63
2018-04-13T02:32:25.186Z,21.87
2018-04-13T02:34:52.824Z,22.40
2018-04-13T02:37:21.892Z,21.10
2018-04-13T02:39:54.369Z,20.97
2018-04-13T02:42:21.992Z,25.33
2018-04-13T02:44:49.569Z,26.57
2018-04-13T02:47:17.193Z,27.53
2018-04-13T02:49:44.786Z,27.30
2018-04-13T02:52:12.363Z,33.53
2018-04-13T02:54:39.960Z,39.13
2018-04-13T02:57:07.533Z,38.50
2018-04-13T02:59:35.176Z,42.07
2018-04-13T03:02:03.558Z,43.27
2018-04-13T03:04:31.935Z,48.53
2018-04-13T03:07:00.320Z,42.83
2018-04-13T03:09:28.660Z,38.57
2018-04-13T03:11:56.230Z,45.97
2018-04-13T03:14:23.871Z,40.50
2018-04-13T03:16:51.449Z,43.50
2018-04-13T03:19:19.075Z,53.70
2018-04-13T03:21:46.646Z,51.23
2018-04-13T03:24:14.218Z,43.57
2018-04-13T03:26:41.838Z,44.97
2018-04-13T03:29:09.420Z,52.03
2018-04-13T03:31:37.043Z,46.50
2018-04-13T03:34:04.627Z,45.47
2018-04-13T03:36:32.202Z,46.37
2018-04-13T03:38:59.822Z,42.67
2018-04-13T03:41:27.443Z,52.87
2018-04-13T03:43:55.063Z,51.40
2018-04-13T03:46:22.682Z,49.93
2018-04-13T03:48:50.293Z,46.47
2018-04-13T03:51:17.908Z,59.23
2018-04-13T03:53:45.529Z,49.37
2018-04-13T03:56:13.113Z,55.23
2018-04-13T03:58:40.690Z,61.57
2018-04-13T04:01:09.069Z,54.07
2018-04-13T04:03:37.451Z,54.43
2018-04-13T04:06:05.093Z,60.80
2018-04-13T04:08:32.708Z,57.10
2018-04-13T04:11:01.100Z,55.80
2018-04-13T04:13:28.722Z,59.00
2018-04-13T04:15:56.459Z,57.77
2018-04-13T04:18:24.915Z,55.83
2018-04-13T04:21:04.225Z,58.40
2018-04-13T04:23:44.355Z,61.70
2018-04-13T04:26:28.578Z,66.50
2018-04-13T04:28:56.449Z,62.67
2018-04-13T04:31:24.086Z,64.97
2018-04-13T04:33:51.667Z,73.90
2018-04-13T04:36:19.281Z,63.63
2018-04-13T04:38:47.621Z,65.13
2018-04-13T04:41:16.005Z,68.30
2018-04-13T04:43:43.585Z,74.33
2018-04-13T04:46:11.218Z,71.53
2018-04-13T04:48:38.880Z,64.53
2018-04-13T04:51:06.465Z,63.60
2018-04-13T04:53:34.083Z,71.40
2018-04-13T04:56:02.073Z,69.20
2018-04-13T04:58:30.497Z,67.67
2018-04-13T05:00:58.122Z,63.00
2018-04-13T05:03:26.475Z,62.53
2018-04-13T05:05:54.098Z,67.57
2018-04-13T05:08:21.920Z,67.00
2018-04-13T05:10:49.572Z,64.00
2018-04-13T05:13:17.151Z,70.13
2018-04-13T05:15:44.757Z,68.70
2018-04-13T05:18:12.369Z,73.13
2018-04-13T05:20:39.958Z,69.67
2018-04-13T05:23:07.580Z,71.37
2018-04-13T05:25:37.518Z,70.70
2018-04-13T05:28:06.460Z,72.53
2018-04-13T05:30:34.142Z,76.50
2018-04-13T05:33:01.774Z,70.87
2018-04-13T05:35:29.389Z,74.30
2018-04-13T05:37:57.007Z,74.93
2018-04-13T05:40:25.344Z,78.33
2018-04-13T05:42:52.978Z,79.00
2018-04-13T05:45:20.556Z,82.00
2018-04-13T05:47:48.500Z,73.40
2018-04-13T05:50:16.241Z,80.27
2018-04-13T05:52:44.584Z,83.40
2018-04-13T05:55:12.202Z,87.10
2018-04-13T05:57:39.779Z,97.63
2018-04-13T06:00:07.424Z,87.80
2018-04-13T06:02:35.002Z,90.50
2018-04-13T06:05:02.612Z,92.30
2018-04-13T06:07:31.012Z,95.00
2018-04-13T06:09:58.597Z,106.20
2018-04-13T06:12:26.177Z,100.73
2018-04-13T06:14:53.798Z,99.17
2018-04-13T06:17:21.416Z,99.40
2018-04-13T06:19:49.028Z,104.13
2018-04-13T06:22:16.611Z,109.13
2018-04-13T06:24:44.234Z,105.37
2018-04-13T06:27:11.859Z,113.33
2018-04-13T06:29:40.880Z,120.77
2018-04-13T06:32:10.022Z,112.20
2018-04-13T06:34:39.209Z,108.53
2018-04-13T06:37:07.566Z,106.57
2018-04-13T06:39:35.367Z,97.90
2018-04-13T06:42:04.311Z,97.23
2018-04-13T06:44:33.113Z,92.43
2018-04-13T06:47:00.922Z,96.90
2018-04-13T06:49:28.533Z,97.13
2018-04-13T06:51:56.874Z,90.33
2018-04-13T06:54:27.510Z,96.47
2018-04-13T06:56:55.142Z,96.60
2018-04-13T06:59:22.717Z,94.63
2018-04-13T07:01:50.306Z,84.97
2018-04-13T07:04:17.923Z,90.50
2018-04-13T07:06:45.505Z,90.17
2018-04-13T07:09:13.119Z,87.70
2018-04-13T07:11:41.462Z,81.67
2018-04-13T07:14:09.084Z,83.30
2018-04-13T07:16:36.663Z,80.57
2018-04-13T07:19:04.285Z,80.97
2018-04-13T07:21:31.866Z,80.80
2018-04-13T07:23:59.491Z,76.77
2018-04-13T07:26:27.078Z,70.50
2018-04-13T07:28:54.697Z,74.70
2018-04-13T07:31:22.275Z,76.70
2018-04-13T07:33:49.894Z,68.73
2018-04-13T07:36:17.760Z,73.30
2018-04-13T07:38:45.114Z,69.73
2018-04-13T07:41:12.737Z,66.70
2018-04-13T07:43:40.331Z,66.53
2018-04-13T07:46:07.981Z,66.17
2018-04-13T07:48:35.564Z,61.60
2018-04-13T07:51:03.148Z,63.83
2018-04-13T07:53:30.777Z,60.10
2018-04-13T07:55:58.362Z,64.47
2018-04-13T07:58:25.986Z,64.30
2018-04-13T08:00:53.945Z,63.73
2018-04-13T08:03:21.221Z,58.93
2018-04-13T08:05:48.954Z,62.67
2018-04-13T08:08:16.461Z,60.50
2018-04-13T08:10:44.241Z,60.23
2018-04-13T08:13:12.412Z,60.53
2018-04-13T08:15:40.038Z,59.17
2018-04-13T08:18:07.649Z,55.60
2018-04-13T08:20:35.277Z,55.57
2018-04-13T08:23:02.864Z,47.03
2018-04-13T08:25:30.514Z,45.63
2018-04-13T08:27:58.137Z,51.47
2018-04-13T08:30:25.718Z,53.30
2018-04-13T08:32:53.351Z,52.17
2018-04-13T08:35:20.979Z,46.20
2018-04-13T08:37:48.574Z,46.47
2018-04-13T08:40:16.187Z,47.07
2018-04-13T08:42:43.778Z,50.73
2018-04-13T08:45:12.163Z,48.33
2018-04-13T08:47:40.508Z,45.70
2018-04-13T08:50:08.129Z,44.63
2018-04-13T08:52:35.715Z,46.83
2018-04-13T08:55:03.354Z,44.57
2018-04-13T08:57:30.949Z,45.07
2018-04-13T08:59:58.570Z,44.63
2018-04-13T09:02:26.148Z,48.43
2018-04-13T09:04:53.762Z,42.47
2018-04-13T09:07:21.350Z,43.43
2018-04-13T09:09:49.000Z,43.47
2018-04-13T09:12:16.627Z,43.37
2018-04-13T09:14:44.215Z,41.90
2018-04-13T09:17:12.608Z,42.57
2018-04-13T09:19:40.945Z,38.37
2018-04-13T09:22:08.565Z,39.33
2018-04-13T09:24:36.781Z,40.20
2018-04-13T09:27:05.731Z,36.60
2018-04-13T09:29:34.410Z,38.10
2018-04-13T09:32:02.319Z,35.07
2018-04-13T09:34:30.195Z,39.13
2018-04-13T09:37:01.335Z,39.50
2018-04-13T09:39:30.157Z,37.73
2018-04-13T09:41:58.231Z,35.80
2018-04-13T09:44:26.449Z,36.23
2018-04-13T09:46:55.150Z,36.60
2018-04-13T09:49:24.025Z,38.80
2018-04-13T09:51:52.606Z,37.73
2018-04-13T09:54:20.827Z,36.70
2018-04-13T09:56:49.752Z,38.37
2018-04-13T09:59:17.957Z,37.93
2018-04-13T10:01:46.266Z,39.70
2018-04-13T10:04:14.663Z,38.83
2018-04-13T10:06:43.660Z,38.27
2018-04-13T10:09:11.861Z,36.37
2018-04-13T10:11:39.955Z,37.30
2018-04-13T10:14:08.995Z,36.90
2018-04-13T10:16:37.822Z,39.73
2018-04-13T10:19:06.044Z,40.07
2018-04-13T10:21:34.384Z,37.33
2018-04-13T10:24:02.520Z,37.93
2018-04-13T10:26:30.686Z,35.93
2018-04-13T10:28:58.938Z,35.57
2018-04-13T10:31:27.919Z,39.37
2018-04-13T10:33:56.142Z,35.90
2018-04-13T10:36:24.393Z,34.73
2018-04-13T10:38:53.433Z,34.73
2018-04-13T10:41:21.883Z,35.53
2018-04-13T10:43:50.187Z,33.80
2018-04-13T10:46:18.677Z,36.73
2018-04-13T10:48:47.621Z,35.00
2018-04-13T10:51:15.711Z,36.57
2018-04-13T10:53:43.772Z,36.13
2018-04-13T10:56:11.453Z,35.93
2018-04-13T10:58:39.078Z,34.97
2018-04-13T11:01:06.667Z,34.07
2018-04-13T11:03:34.304Z,34.93
2018-04-13T11:06:01.898Z,33.27
2018-04-13T11:08:30.304Z,33.93
2018-04-13T11:10:59.624Z,33.03
2018-04-13T11:13:27.549Z,34.87
2018-04-13T11:15:55.428Z,38.23
2018-04-13T11:18:25.248Z,33.17
2018-04-13T11:20:53.601Z,36.67
2018-04-13T11:23:21.953Z,34.97
2018-04-13T11:25:51.111Z,33.10
2018-04-13T11:28:20.024Z,33.10
2018-04-13T11:30:48.258Z,34.87
2018-04-13T11:33:16.397Z,31.20
2018-04-13T11:35:45.142Z,34.00
2018-04-13T11:38:13.349Z,34.30
2018-04-13T11:40:41.619Z,31.13
2018-04-13T11:43:09.804Z,33.97
2018-04-13T11:45:38.071Z,30.53
2018-04-13T11:48:06.343Z,30.27
2018-04-13T11:50:35.885Z,29.30
2018-04-13T11:53:04.035Z,28.03
2018-04-13T11:55:32.300Z,29.50
2018-04-13T11:58:00.526Z,32.73
2018-04-13T12:00:29.998Z,34.00
2018-04-13T12:02:58.335Z,31.17
2018-04-13T12:05:26.476Z,32.53
2018-04-13T12:07:54.655Z,30.60
2018-04-13T12:10:23.080Z,30.20
2018-04-13T12:12:50.863Z,33.07
2018-04-13T12:15:18.919Z,29.53
2018-04-13T12:17:47.494Z,29.63
2018-04-13T12:20:15.781Z,29.77
2018-04-13T12:22:44.123Z,28.73
2018-04-13T12:25:12.272Z,32.70
2018-04-13T12:27:40.942Z,31.80
2018-04-13T12:30:10.955Z,32.07
2018-04-13T12:32:39.752Z,36.17
2018-04-13T12:35:10.993Z,34.53
2018-04-13T12:37:38.720Z,36.57
2018-04-13T12:40:06.488Z,35.47
2018-04-13T12:42:34.547Z,36.57
2018-04-13T12:45:04.932Z,36.93
2018-04-13T12:47:35.028Z,38.87
2018-04-13T12:50:06.661Z,37.83
2018-04-13T12:52:35.002Z,37.97
2018-04-13T12:55:04.233Z,37.37
2018-04-13T12:57:32.750Z,38.93
2018-04-13T13:00:01.114Z,39.00
2018-04-13T13:02:29.424Z,41.73
2018-04-13T13:04:57.500Z,35.80
2018-04-13T13:07:25.551Z,35.23
2018-04-13T13:09:53.590Z,36.50
2018-04-13T13:12:21.519Z,34.27
2018-04-13T13:14:50.531Z,36.40
2018-04-13T13:17:18.584Z,37.83
2018-04-13T13:19:47.286Z,39.80
2018-04-13T13:22:16.240Z,39.97
2018-04-13T13:24:45.032Z,39.67
2018-04-13T13:27:13.251Z,38.23
2018-04-13T13:29:41.370Z,42.93
2018-04-13T13:32:10.824Z,40.33
2018-04-13T13:34:39.458Z,43.40
2018-04-13T13:37:07.722Z,40.23
2018-04-13T13:39:35.919Z,41.23
2018-04-13T13:42:03.538Z,39.30
2018-04-13T13:44:31.158Z,38.43
2018-04-13T13:46:58.739Z,39.13
2018-04-13T13:49:26.370Z,40.97
2018-04-13T13:51:53.990Z,38.57
2018-04-13T13:54:21.601Z,38.30
2018-04-13T13:56:49.233Z,39.33
2018-04-13T13:59:16.844Z,36.30
2018-04-13T14:01:44.426Z,38.17
2018-04-13T14:04:12.069Z,40.27
2018-04-13T14:06:39.645Z,39.27
2018-04-13T14:09:07.274Z,39.53
2018-04-13T14:11:34.847Z,41.67
2018-04-13T14:14:02.474Z,41.03
2018-04-13T14:16:30.094Z,41.90
2018-04-13T14:18:57.703Z,42.80
2018-04-13T14:21:25.279Z,39.90
2018-04-13T14:23:52.900Z,42.70
2018-04-13T14:26:21.244Z,43.77
2018-04-13T14:28:48.871Z,41.13
2018-04-13T14:31:16.453Z,39.23
2018-04-13T14:33:44.088Z,39.10
2018-04-13T14:36:11.676Z,40.63
2018-04-13T14:38:39.316Z,41.83
2018-04-13T14:41:06.923Z,39.57
2018-04-13T14:43:34.575Z,42.30
2018-04-13T14:46:02.154Z,41.30
2018-04-13T14:48:29.785Z,42.70
2018-04-13T14:50:57.369Z,40.57
2018-04-13T14:53:24.981Z,39.30
2018-04-13T14:55:52.683Z,42.50
2018-04-13T14:58:20.298Z,42.77
2018-04-13T15:00:47.881Z,42.93
2018-04-13T15:03:15.511Z,43.97
2018-04-13T15:05:43.112Z,43.53
2018-04-13T15:08:10.682Z,38.10
2018-04-13T15:10:38.342Z,39.20
2018-04-13T15:13:07.295Z,43.80
2018-04-13T15:15:38.151Z,41.97
2018-04-13T15:18:06.596Z,42.07
2018-04-13T15:20:34.949Z,43.97
2018-04-13T15:23:02.562Z,42.97
2018-04-13T15:25:30.201Z,44.23
2018-04-13T15:27:57.827Z,43.10
2018-04-13T15:30:25.858Z,45.37
2018-04-13T15:32:55.460Z,45.83
2018-04-13T15:35:27.201Z,51.67
2018-04-13T15:37:56.826Z,44.20
2018-04-13T15:40:24.610Z,47.50
2018-04-13T15:42:52.266Z,43.73
2018-04-13T15:45:22.664Z,48.60
2018-04-13T15:47:51.016Z,47.37
2018-04-13T15:50:18.603Z,44.97
2018-04-13T15:52:46.226Z,45.40
2018-04-13T15:55:13.904Z,47.33
2018-04-13T15:57:41.566Z,51.30
2018-04-13T16:00:10.235Z,53.33
2018-04-13T16:02:38.722Z,51.23
2018-04-13T16:05:07.199Z,54.27
2018-04-13T16:07:34.782Z,56.50
2018-04-13T16:10:02.402Z,54.03
2018-04-13T16:12:30.010Z,53.40
2018-04-13T16:14:57.636Z,58.03
2018-04-13T16:17:25.277Z,73.10
2018-04-13T16:19:52.881Z,63.57
2018-04-13T16:22:20.460Z,55.67
2018-04-13T16:24:48.842Z,60.70
2018-04-13T16:27:16.425Z,68.77
2018-04-13T16:29:44.038Z,66.87
2018-04-13T16:32:11.660Z,60.17
2018-04-13T16:34:39.242Z,43.23
2018-04-13T16:37:06.898Z,36.53
2018-04-13T16:39:34.474Z,28.97
2018-04-13T16:42:02.201Z,38.30
2018-04-13T16:44:30.506Z,40.07
2018-04-13T16:46:58.146Z,40.53
2018-04-13T16:49:25.726Z,44.90
2018-04-13T16:51:53.399Z,44.63
2018-04-13T16:54:21.104Z,46.70
2018-04-13T16:56:49.144Z,49.50
2018-04-13T16:59:18.487Z,47.67
2018-04-13T17:01:46.692Z,48.90
2018-04-13T17:04:15.144Z,49.63
2018-04-13T17:06:43.727Z,56.00
2018-04-13T17:09:12.037Z,54.90
2018-04-13T17:11:40.263Z,64.27
2018-04-13T17:14:08.637Z,62.80
2018-04-13T17:16:36.716Z,73.00
2018-04-13T17:19:04.833Z,73.70
2018-04-13T17:21:32.874Z,75.37
2018-04-13T17:24:01.003Z,72.67
2018-04-13T17:26:29.917Z,83.37
2018-04-13T17:28:57.899Z,78.20
2018-04-13T17:31:26.011Z,86.33
2018-04-13T17:33:54.275Z,83.17
2018-04-13T17:36:22.380Z,79.47
2018-04-13T17:38:50.067Z,76.97
2018-04-13T17:41:17.696Z,85.67
2018-04-13T17:43:46.391Z,79.10
2018-04-13T17:46:14.135Z,81.83
2018-04-13T17:48:41.714Z,82.23
2018-04-13T17:51:09.299Z,80.23
2018-04-13T17:53:40.157Z,80.40
2018-04-13T17:56:07.810Z,82.27
2018-04-13T17:58:36.161Z,84.90
2018-04-13T18:01:03.787Z,86.63
2018-04-13T18:03:31.533Z,82.83
2018-04-13T18:05:59.895Z,85.00
2018-04-13T18:08:27.499Z,86.10
2018-04-13T18:10:55.139Z,85.43
2018-04-13T18:13:23.517Z,92.57
2018-04-13T18:15:52.198Z,84.17
2018-04-13T18:18:20.595Z,84.87
2018-04-13T18:20:48.280Z,90.47
2018-04-13T18:23:15.861Z,92.73
2018-04-13T18:25:43.450Z,87.53
2018-04-13T18:28:11.076Z,95.93
2018-04-13T18:30:38.747Z,95.10
2018-04-13T18:33:06.368Z,96.50
2018-04-13T18:35:34.772Z,109.10
2018-04-13T18:38:02.402Z,111.63
2018-04-13T18:40:30.010Z,107.13
2018-04-13T18:42:57.767Z,114.27
2018-04-13T18:45:25.345Z,111.17
2018-04-13T18:47:53.000Z,121.27
2018-04-13T18:50:20.613Z,121.73
2018-04-13T18:52:48.973Z,113.97
2018-04-13T18:55:16.605Z,121.97
2018-04-13T18:57:44.206Z,124.50
2018-04-13T19:00:12.605Z,127.10
2018-04-13T19:02:40.234Z,130.90
2018-04-13T19:05:07.827Z,124.57
2018-04-13T19:07:35.498Z,131.97
2018-04-13T19:10:03.881Z,134.80
2018-04-13T19:12:31.877Z,137.80
2018-04-13T19:14:59.915Z,131.27
2018-04-13T19:17:27.755Z,144.43
2018-04-13T19:19:55.576Z,137.13
2018-04-13T19:22:23.500Z,144.73
2018-04-13T19:24:51.874Z,142.80
2018-04-13T19:27:20.277Z,156.93
2018-04-13T19:29:47.888Z,153.37
2018-04-13T19:32:15.525Z,151.13
2018-04-13T19:34:43.218Z,152.07
2018-04-13T19:37:10.867Z,151.50
2018-04-13T19:39:38.505Z,150.13
2018-04-13T19:42:06.348Z,147.20
2018-04-13T19:44:33.936Z,147.10
2018-04-13T19:47:01.582Z,162.93
2018-04-13T19:49:29.466Z,153.83
2018-04-13T19:51:57.313Z,162.07
2018-04-13T19:54:24.951Z,176.63
2018-04-13T19:56:52.581Z,176.73
2018-04-13T19:59:20.201Z,203.10
2018-04-13T20:01:47.868Z,205.30
2018-04-13T20:04:15.554Z,202.73
2018-04-13T20:06:43.191Z,211.47
2018-04-13T20:09:10.818Z,209.00
2018-04-13T20:11:38.503Z,219.93
2018-04-13T20:14:06.922Z,204.43
2018-04-13T20:16:34.573Z,213.27
2018-04-13T20:19:02.331Z,187.90
2018-04-13T20:21:29.919Z,189.10
2018-04-13T20:23:57.594Z,204.47
2018-04-13T20:26:25.258Z,161.57
2018-04-13T20:28:52.927Z,164.97
2018-04-13T20:31:20.547Z,174.93
2018-04-13T20:33:48.141Z,161.50
2018-04-13T20:36:15.813Z,158.60
2018-04-13T20:38:43.433Z,157.77
2018-04-13T20:41:11.010Z,159.33
2018-04-13T20:43:38.669Z,160.70
2018-04-13T20:46:06.301Z,160.93
2018-04-13T20:48:33.899Z,161.27
2018-04-13T20:51:01.602Z,160.27
2018-04-13T20:53:29.217Z,166.23
2018-04-13T20:55:56.899Z,159.13
2018-04-13T20:58:24.552Z,161.13
2018-04-13T21:00:52.225Z,161.83
2018-04-13T21:03:19.832Z,178.90
2018-04-13T21:05:47.415Z,168.33
2018-04-13T21:08:15.077Z,169.93
2018-04-13T21:10:42.792Z,181.83
2018-04-13T21:13:10.468Z,179.97
2018-04-13T21:15:38.895Z,191.20
2018-04-13T21:18:08.697Z,201.63
2018-04-13T21:20:36.598Z,199.47
2018-04-13T21:23:04.226Z,195.30
2018-04-13T21:25:32.320Z,226.90
2018-04-13T21:28:00.501Z,205.80
2018-04-13T21:30:28.824Z,219.83
2018-04-13T21:32:56.647Z,224.40
2018-04-13T21:35:24.824Z,219.03
2018-04-13T21:37:52.528Z,214.33
2018-04-13T21:40:20.637Z,231.20
2018-04-13T21:42:48.443Z,224.87
2018-04-13T21:45:16.062Z,229.70
2018-04-13T21:47:43.862Z,227.70
2018-04-13T21:50:11.505Z,229.87
2018-04-13T21:52:39.126Z,239.97
2018-04-13T21:55:06.718Z,224.13
2018-04-13T21:57:35.755Z,249.00
2018-04-13T22:00:03.393Z,224.30
2018-04-13T22:02:30.991Z,235.80
2018-04-13T22:04:58.607Z,241.37
2018-04-13T22:07:26.192Z,227.50
2018-04-13T22:09:53.811Z,235.57
2018-04-13T22:12:33.151Z,229.73
2018-04-13T22:15:00.794Z,233.33
2018-04-13T22:17:28.365Z,237.17
2018-04-13T22:19:56.200Z,230.23
2018-04-13T22:22:24.132Z,238.87
2018-04-13T22:24:51.884Z,233.60
2018-04-13T22:27:19.457Z,231.33
2018-04-13T22:29:47.075Z,217.80
2018-04-13T22:32:14.658Z,233.33
2018-04-13T22:34:42.409Z,215.17
2018-04-13T22:37:09.990Z,202.03
2018-04-13T22:39:37.576Z,210.93
2018-04-13T22:42:05.186Z,197.20
2018-04-13T22:44:32.810Z,221.63
2018-04-13T22:47:00.434Z,199.43
2018-04-13T22:49:28.020Z,216.63
2018-04-13T22:51:55.589Z,203.23
2018-04-13T22:54:23.205Z,208.40
2018-04-13T22:56:50.782Z,205.80
2018-04-13T22:59:18.398Z,207.67
2018-04-13T23:01:46.744Z,182.20
2018-04-13T23:04:14.323Z,187.40
2018-04-13T23:06:41.954Z,173.33
2018-04-13T23:09:09.543Z,170.37
2018-04-13T23:11:37.138Z,153.10
2018-04-13T23:14:04.757Z,168.43
2018-04-13T23:16:32.336Z,147.80
2018-04-13T23:19:00.001Z,136.13
2018-04-13T23:21:27.602Z,121.13
2018-04-13T23:23:55.178Z,116.60
2018-04-13T23:26:22.786Z,106.00
2018-04-13T23:28:50.369Z,118.17
2018-04-13T23:31:17.987Z,116.87
2018-04-13T23:33:45.561Z,123.73
2018-04-13T23:36:13.187Z,128.87
2018-04-13T23:38:40.754Z,125.23
2018-04-13T23:41:08.371Z,129.97
2018-04-13T23:43:35.982Z,133.07
2018-04-13T23:46:03.618Z,129.17
2018-04-13T23:48:31.234Z,130.63
2018-04-13T23:50:59.582Z,124.93
2018-04-13T23:53:27.194Z,128.27
2018-04-13T23:55:54.773Z,146.07
2018-04-13T23:58:22.389Z,136.90
